sensor_id;sensor_type;location;lat;lon;timestamp;P1;durP1;ratioP1;P2;durP2;ratioP2
14294;SDS011;7231;59.370;18.016;2022-11-15T00:01:14;0.90;;;0.90;;
14294;SDS011;7231;59.370;18.016;2022-11-15T00:03:44;2.15;;;0.85;;
14294;SDS011;7231;59.370;18.016;2022-11-15T00:06:12;1.73;;;0.80;;
14294;SDS011;7231;59.370;18.016;2022-11-15T00:08:40;2.10;;;0.90;;
14294;SDS011;7231;59.370;18.016;2022-11-15T00:11:10;3.00;;;0.90;;
14294;SDS011;7231;59.370;18.016;2022-11-15T00:13:39;1.52;;;0.70;;
14294;SDS011;7231;59.370;18.016;2022-11-15T00:16:08;0.70;;;0.70;;
14294;SDS011;7231;59.370;18.016;2022-11-15T00:18:37;0.70;;;0.70;;
14294;SDS011;7231;59.370;18.016;2022-11-15T00:21:06;0.70;;;0.70;;
14294;SDS011;7231;59.370;18.016;2022-11-15T00:23:35;1.20;;;1.10;;
14294;SDS011;7231;59.370;18.016;2022-11-15T00:26:03;2.65;;;1.00;;
14294;SDS011;7231;59.370;18.016;2022-11-15T00:28:32;1.30;;;1.20;;
14294;SDS011;7231;59.370;18.016;2022-11-15T00:31:00;1.60;;;0.95;;
14294;SDS011;7231;59.370;18.016;2022-11-15T00:33:30;1.73;;;1.50;;
14294;SDS011;7231;59.370;18.016;2022-11-15T00:35:59;1.70;;;1.50;;
14294;SDS011;7231;59.370;18.016;2022-11-15T00:38:30;2.10;;;1.65;;
14294;SDS011;7231;59.370;18.016;2022-11-15T00:41:00;2.05;;;1.60;;
14294;SDS011;7231;59.370;18.016;2022-11-15T00:43:34;2.05;;;1.20;;
14294;SDS011;7231;59.370;18.016;2022-11-15T00:46:03;1.63;;;1.38;;
14294;SDS011;7231;59.370;18.016;2022-11-15T00:48:32;3.15;;;1.20;;
14294;SDS011;7231;59.370;18.016;2022-11-15T00:51:00;1.70;;;0.90;;
14294;SDS011;7231;59.370;18.016;2022-11-15T00:53:29;1.33;;;1.20;;
14294;SDS011;7231;59.370;18.016;2022-11-15T00:55:57;1.13;;;1.02;;
14294;SDS011;7231;59.370;18.016;2022-11-15T00:58:25;1.02;;;0.93;;
14294;SDS011;7231;59.370;18.016;2022-11-15T01:00:53;1.70;;;1.10;;
14294;SDS011;7231;59.370;18.016;2022-11-15T01:03:21;1.10;;;1.00;;
14294;SDS011;7231;59.370;18.016;2022-11-15T01:05:50;1.95;;;1.00;;
14294;SDS011;7231;59.370;18.016;2022-11-15T01:08:18;1.08;;;0.98;;
14294;SDS011;7231;59.370;18.016;2022-11-15T01:10:46;1.70;;;1.60;;
14294;SDS011;7231;59.370;18.016;2022-11-15T01:13:14;1.38;;;1.25;;
14294;SDS011;7231;59.370;18.016;2022-11-15T01:15:42;1.50;;;1.38;;
14294;SDS011;7231;59.370;18.016;2022-11-15T01:18:10;1.90;;;1.40;;
14294;SDS011;7231;59.370;18.016;2022-11-15T01:20:39;1.30;;;1.20;;
14294;SDS011;7231;59.370;18.016;2022-11-15T01:23:09;1.45;;;1.33;;
14294;SDS011;7231;59.370;18.016;2022-11-15T01:25:37;1.40;;;1.30;;
14294;SDS011;7231;59.370;18.016;2022-11-15T01:28:05;1.15;;;0.98;;
14294;SDS011;7231;59.370;18.016;2022-11-15T01:30:33;1.38;;;0.90;;
14294;SDS011;7231;59.370;18.016;2022-11-15T01:33:03;1.33;;;0.90;;
14294;SDS011;7231;59.370;18.016;2022-11-15T01:35:31;2.67;;;0.80;;
14294;SDS011;7231;59.370;18.016;2022-11-15T01:37:59;1.00;;;0.80;;
14294;SDS011;7231;59.370;18.016;2022-11-15T01:40:29;1.75;;;0.63;;
14294;SDS011;7231;59.370;18.016;2022-11-15T01:42:57;0.90;;;0.60;;
14294;SDS011;7231;59.370;18.016;2022-11-15T01:45:25;1.10;;;0.60;;
14294;SDS011;7231;59.370;18.016;2022-11-15T01:47:54;1.55;;;0.82;;
14294;SDS011;7231;59.370;18.016;2022-11-15T01:50:23;0.50;;;0.50;;
14294;SDS011;7231;59.370;18.016;2022-11-15T01:52:54;1.60;;;0.77;;
14294;SDS011;7231;59.370;18.016;2022-11-15T01:55:24;1.60;;;0.70;;
14294;SDS011;7231;59.370;18.016;2022-11-15T01:57:57;1.25;;;0.80;;
14294;SDS011;7231;59.370;18.016;2022-11-15T02:00:29;0.60;;;0.60;;
14294;SDS011;7231;59.370;18.016;2022-11-15T02:02:58;1.67;;;1.10;;
14294;SDS011;7231;59.370;18.016;2022-11-15T02:05:26;1.58;;;1.30;;
14294;SDS011;7231;59.370;18.016;2022-11-15T02:07:54;1.35;;;1.20;;
14294;SDS011;7231;59.370;18.016;2022-11-15T02:10:23;1.88;;;1.67;;
14294;SDS011;7231;59.370;18.016;2022-11-15T02:12:51;2.33;;;1.90;;
14294;SDS011;7231;59.370;18.016;2022-11-15T02:15:24;2.03;;;1.83;;
14294;SDS011;7231;59.370;18.016;2022-11-15T02:18:02;2.03;;;1.88;;
14294;SDS011;7231;59.370;18.016;2022-11-15T02:20:43;2.40;;;2.00;;
14294;SDS011;7231;59.370;18.016;2022-11-15T02:23:33;2.50;;;1.83;;
14294;SDS011;7231;59.370;18.016;2022-11-15T02:26:26;3.75;;;2.08;;
14294;SDS011;7231;59.370;18.016;2022-11-15T02:29:10;3.63;;;1.60;;
14294;SDS011;7231;59.370;18.016;2022-11-15T02:31:45;2.22;;;1.60;;
14294;SDS011;7231;59.370;18.016;2022-11-15T02:34:20;2.20;;;1.80;;
14294;SDS011;7231;59.370;18.016;2022-11-15T02:36:59;1.90;;;1.80;;
14294;SDS011;7231;59.370;18.016;2022-11-15T02:39:35;3.95;;;2.10;;
14294;SDS011;7231;59.370;18.016;2022-11-15T02:42:11;2.15;;;1.98;;
14294;SDS011;7231;59.370;18.016;2022-11-15T02:45:03;2.15;;;1.70;;
14294;SDS011;7231;59.370;18.016;2022-11-15T02:47:39;1.58;;;1.48;;
14294;SDS011;7231;59.370;18.016;2022-11-15T02:50:11;2.10;;;1.90;;
14294;SDS011;7231;59.370;18.016;2022-11-15T02:52:44;2.13;;;1.92;;
14294;SDS011;7231;59.370;18.016;2022-11-15T02:55:26;2.15;;;1.92;;
14294;SDS011;7231;59.370;18.016;2022-11-15T02:57:58;2.63;;;2.13;;
14294;SDS011;7231;59.370;18.016;2022-11-15T03:00:40;2.20;;;2.00;;
14294;SDS011;7231;59.370;18.016;2022-11-15T03:03:28;2.60;;;1.75;;
14294;SDS011;7231;59.370;18.016;2022-11-15T03:06:11;3.47;;;1.63;;
14294;SDS011;7231;59.370;18.016;2022-11-15T03:08:53;1.90;;;1.70;;
14294;SDS011;7231;59.370;18.016;2022-11-15T03:11:29;1.55;;;1.25;;
14294;SDS011;7231;59.370;18.016;2022-11-15T03:14:09;2.03;;;1.50;;
14294;SDS011;7231;59.370;18.016;2022-11-15T03:16:44;2.00;;;1.50;;
14294;SDS011;7231;59.370;18.016;2022-11-15T03:19:20;1.52;;;1.40;;
14294;SDS011;7231;59.370;18.016;2022-11-15T03:21:55;1.42;;;1.30;;
14294;SDS011;7231;59.370;18.016;2022-11-15T03:24:26;1.30;;;1.20;;
14294;SDS011;7231;59.370;18.016;2022-11-15T03:26:57;2.40;;;1.48;;
14294;SDS011;7231;59.370;18.016;2022-11-15T03:29:29;1.40;;;1.30;;
14294;SDS011;7231;59.370;18.016;2022-11-15T03:32:01;1.73;;;1.42;;
14294;SDS011;7231;59.370;18.016;2022-11-15T03:34:38;1.60;;;1.40;;
14294;SDS011;7231;59.370;18.016;2022-11-15T03:37:09;1.50;;;1.40;;
14294;SDS011;7231;59.370;18.016;2022-11-15T03:39:40;1.83;;;1.63;;
14294;SDS011;7231;59.370;18.016;2022-11-15T03:42:12;2.00;;;1.80;;
14294;SDS011;7231;59.370;18.016;2022-11-15T03:44:51;1.58;;;1.42;;
14294;SDS011;7231;59.370;18.016;2022-11-15T03:47:24;2.75;;;1.60;;
14294;SDS011;7231;59.370;18.016;2022-11-15T03:49:59;1.88;;;1.70;;
14294;SDS011;7231;59.370;18.016;2022-11-15T03:52:30;1.70;;;1.60;;
14294;SDS011;7231;59.370;18.016;2022-11-15T03:55:01;1.80;;;1.70;;
14294;SDS011;7231;59.370;18.016;2022-11-15T03:57:31;2.33;;;2.13;;
14294;SDS011;7231;59.370;18.016;2022-11-15T03:59:59;2.63;;;2.05;;
14294;SDS011;7231;59.370;18.016;2022-11-15T04:02:27;2.53;;;1.92;;
14294;SDS011;7231;59.370;18.016;2022-11-15T04:04:55;2.03;;;1.88;;
14294;SDS011;7231;59.370;18.016;2022-11-15T04:07:25;2.33;;;1.95;;
14294;SDS011;7231;59.370;18.016;2022-11-15T04:09:53;2.40;;;2.20;;
14294;SDS011;7231;59.370;18.016;2022-11-15T04:12:32;2.30;;;1.85;;
14294;SDS011;7231;59.370;18.016;2022-11-15T04:15:03;1.65;;;1.50;;
14294;SDS011;7231;59.370;18.016;2022-11-15T04:17:35;1.98;;;1.77;;
14294;SDS011;7231;59.370;18.016;2022-11-15T04:20:06;2.13;;;1.55;;
14294;SDS011;7231;59.370;18.016;2022-11-15T04:22:56;1.60;;;1.38;;
14294;SDS011;7231;59.370;18.016;2022-11-15T04:25:43;1.20;;;1.10;;
14294;SDS011;7231;59.370;18.016;2022-11-15T04:28:12;2.72;;;1.38;;
14294;SDS011;7231;59.370;18.016;2022-11-15T04:30:40;1.70;;;1.50;;
14294;SDS011;7231;59.370;18.016;2022-11-15T04:33:08;1.40;;;1.30;;
14294;SDS011;7231;59.370;18.016;2022-11-15T04:35:36;1.65;;;1.48;;
14294;SDS011;7231;59.370;18.016;2022-11-15T04:38:06;1.30;;;1.20;;
14294;SDS011;7231;59.370;18.016;2022-11-15T04:40:34;1.65;;;1.23;;
14294;SDS011;7231;59.370;18.016;2022-11-15T04:43:03;1.23;;;1.13;;
14294;SDS011;7231;59.370;18.016;2022-11-15T04:45:31;1.55;;;1.45;;
14294;SDS011;7231;59.370;18.016;2022-11-15T04:47:59;1.77;;;1.30;;
14294;SDS011;7231;59.370;18.016;2022-11-15T04:50:27;2.40;;;1.42;;
14294;SDS011;7231;59.370;18.016;2022-11-15T04:52:55;1.90;;;1.70;;
14294;SDS011;7231;59.370;18.016;2022-11-15T04:55:24;1.60;;;1.50;;
14294;SDS011;7231;59.370;18.016;2022-11-15T04:57:58;3.33;;;1.92;;
14294;SDS011;7231;59.370;18.016;2022-11-15T05:00:27;3.60;;;1.60;;
14294;SDS011;7231;59.370;18.016;2022-11-15T05:02:56;2.63;;;2.03;;
14294;SDS011;7231;59.370;18.016;2022-11-15T05:05:42;2.17;;;1.77;;
14294;SDS011;7231;59.370;18.016;2022-11-15T05:08:10;2.40;;;1.73;;
14294;SDS011;7231;59.370;18.016;2022-11-15T05:10:40;2.60;;;1.80;;
14294;SDS011;7231;59.370;18.016;2022-11-15T05:13:08;3.17;;;1.80;;
14294;SDS011;7231;59.370;18.016;2022-11-15T05:15:36;3.53;;;2.05;;
14294;SDS011;7231;59.370;18.016;2022-11-15T05:18:04;3.10;;;2.15;;
14294;SDS011;7231;59.370;18.016;2022-11-15T05:20:32;3.90;;;2.20;;
14294;SDS011;7231;59.370;18.016;2022-11-15T05:23:00;3.63;;;2.28;;
14294;SDS011;7231;59.370;18.016;2022-11-15T05:25:28;4.22;;;2.30;;
14294;SDS011;7231;59.370;18.016;2022-11-15T05:27:58;3.03;;;2.30;;
14294;SDS011;7231;59.370;18.016;2022-11-15T05:30:26;3.13;;;1.98;;
14294;SDS011;7231;59.370;18.016;2022-11-15T05:32:54;3.17;;;2.15;;
14294;SDS011;7231;59.370;18.016;2022-11-15T05:35:25;2.30;;;2.03;;
14294;SDS011;7231;59.370;18.016;2022-11-15T05:37:57;3.25;;;1.95;;
14294;SDS011;7231;59.370;18.016;2022-11-15T05:40:26;5.25;;;2.42;;
14294;SDS011;7231;59.370;18.016;2022-11-15T05:42:55;3.42;;;1.90;;
14294;SDS011;7231;59.370;18.016;2022-11-15T05:45:25;3.15;;;1.83;;
14294;SDS011;7231;59.370;18.016;2022-11-15T05:47:53;4.38;;;1.58;;
14294;SDS011;7231;59.370;18.016;2022-11-15T05:50:23;2.45;;;1.60;;
14294;SDS011;7231;59.370;18.016;2022-11-15T05:52:52;3.70;;;1.67;;
14294;SDS011;7231;59.370;18.016;2022-11-15T05:55:30;7.43;;;1.60;;
14294;SDS011;7231;59.370;18.016;2022-11-15T05:57:58;3.42;;;1.55;;
14294;SDS011;7231;59.370;18.016;2022-11-15T06:00:28;2.13;;;1.75;;
14294;SDS011;7231;59.370;18.016;2022-11-15T06:02:56;3.15;;;1.50;;
14294;SDS011;7231;59.370;18.016;2022-11-15T06:05:24;2.30;;;1.40;;
14294;SDS011;7231;59.370;18.016;2022-11-15T06:07:56;2.25;;;1.30;;
14294;SDS011;7231;59.370;18.016;2022-11-15T06:10:24;2.25;;;1.50;;
14294;SDS011;7231;59.370;18.016;2022-11-15T06:12:56;3.72;;;1.33;;
14294;SDS011;7231;59.370;18.016;2022-11-15T06:15:25;3.17;;;1.13;;
14294;SDS011;7231;59.370;18.016;2022-11-15T06:17:56;4.78;;;1.20;;
14294;SDS011;7231;59.370;18.016;2022-11-15T06:20:25;4.85;;;1.00;;
14294;SDS011;7231;59.370;18.016;2022-11-15T06:22:56;2.00;;;1.00;;
14294;SDS011;7231;59.370;18.016;2022-11-15T06:25:26;2.63;;;0.88;;
14294;SDS011;7231;59.370;18.016;2022-11-15T06:27:55;5.47;;;1.08;;
14294;SDS011;7231;59.370;18.016;2022-11-15T06:30:26;1.73;;;0.90;;
14294;SDS011;7231;59.370;18.016;2022-11-15T06:33:02;2.28;;;0.70;;
14294;SDS011;7231;59.370;18.016;2022-11-15T06:35:32;1.77;;;0.93;;
14294;SDS011;7231;59.370;18.016;2022-11-15T06:38:02;5.80;;;0.80;;
14294;SDS011;7231;59.370;18.016;2022-11-15T06:40:32;1.70;;;0.80;;
14294;SDS011;7231;59.370;18.016;2022-11-15T06:43:02;4.00;;;0.90;;
14294;SDS011;7231;59.370;18.016;2022-11-15T06:45:31;2.92;;;0.80;;
14294;SDS011;7231;59.370;18.016;2022-11-15T06:47:59;6.13;;;1.20;;
14294;SDS011;7231;59.370;18.016;2022-11-15T06:50:29;2.63;;;1.15;;
14294;SDS011;7231;59.370;18.016;2022-11-15T06:53:00;4.80;;;0.90;;
14294;SDS011;7231;59.370;18.016;2022-11-15T06:55:29;2.78;;;1.05;;
14294;SDS011;7231;59.370;18.016;2022-11-15T06:57:57;3.17;;;0.88;;
14294;SDS011;7231;59.370;18.016;2022-11-15T07:00:25;2.17;;;1.00;;
14294;SDS011;7231;59.370;18.016;2022-11-15T07:02:53;4.38;;;1.20;;
14294;SDS011;7231;59.370;18.016;2022-11-15T07:05:21;4.40;;;1.27;;
14294;SDS011;7231;59.370;18.016;2022-11-15T07:07:53;3.63;;;1.17;;
14294;SDS011;7231;59.370;18.016;2022-11-15T07:10:23;3.63;;;1.10;;
14294;SDS011;7231;59.370;18.016;2022-11-15T07:12:52;2.38;;;0.93;;
14294;SDS011;7231;59.370;18.016;2022-11-15T07:15:21;3.17;;;0.90;;
14294;SDS011;7231;59.370;18.016;2022-11-15T07:17:50;2.88;;;1.00;;
14294;SDS011;7231;59.370;18.016;2022-11-15T07:20:19;3.90;;;0.80;;
14294;SDS011;7231;59.370;18.016;2022-11-15T07:22:47;2.83;;;1.00;;
14294;SDS011;7231;59.370;18.016;2022-11-15T07:25:16;3.13;;;0.98;;
14294;SDS011;7231;59.370;18.016;2022-11-15T07:27:53;2.95;;;0.82;;
14294;SDS011;7231;59.370;18.016;2022-11-15T07:30:22;5.63;;;0.88;;
14294;SDS011;7231;59.370;18.016;2022-11-15T07:32:52;4.95;;;1.05;;
14294;SDS011;7231;59.370;18.016;2022-11-15T07:35:20;5.05;;;1.58;;
14294;SDS011;7231;59.370;18.016;2022-11-15T07:37:55;2.65;;;0.90;;
14294;SDS011;7231;59.370;18.016;2022-11-15T07:40:25;2.35;;;0.85;;
14294;SDS011;7231;59.370;18.016;2022-11-15T07:42:58;3.00;;;1.02;;
14294;SDS011;7231;59.370;18.016;2022-11-15T07:45:27;4.30;;;1.30;;
14294;SDS011;7231;59.370;18.016;2022-11-15T07:47:55;4.93;;;0.98;;
14294;SDS011;7231;59.370;18.016;2022-11-15T07:50:23;3.17;;;0.88;;
14294;SDS011;7231;59.370;18.016;2022-11-15T07:52:55;1.70;;;0.80;;
14294;SDS011;7231;59.370;18.016;2022-11-15T07:55:25;4.40;;;1.20;;
14294;SDS011;7231;59.370;18.016;2022-11-15T07:57:59;3.00;;;1.10;;
14294;SDS011;7231;59.370;18.016;2022-11-15T08:00:29;5.07;;;1.13;;
14294;SDS011;7231;59.370;18.016;2022-11-15T08:03:03;1.67;;;0.82;;
14294;SDS011;7231;59.370;18.016;2022-11-15T08:05:32;2.45;;;1.20;;
14294;SDS011;7231;59.370;18.016;2022-11-15T08:08:00;4.28;;;0.68;;
14294;SDS011;7231;59.370;18.016;2022-11-15T08:10:30;4.45;;;1.20;;
14294;SDS011;7231;59.370;18.016;2022-11-15T08:13:06;5.43;;;0.88;;
14294;SDS011;7231;59.370;18.016;2022-11-15T08:15:36;5.47;;;1.05;;
14294;SDS011;7231;59.370;18.016;2022-11-15T08:18:09;3.90;;;1.00;;
14294;SDS011;7231;59.370;18.016;2022-11-15T08:20:39;2.53;;;1.00;;
14294;SDS011;7231;59.370;18.016;2022-11-15T08:23:07;3.13;;;1.00;;
14294;SDS011;7231;59.370;18.016;2022-11-15T08:25:36;2.63;;;0.93;;
14294;SDS011;7231;59.370;18.016;2022-11-15T08:28:05;3.58;;;1.02;;
14294;SDS011;7231;59.370;18.016;2022-11-15T08:30:35;3.35;;;1.00;;
14294;SDS011;7231;59.370;18.016;2022-11-15T08:33:10;2.75;;;1.05;;
14294;SDS011;7231;59.370;18.016;2022-11-15T08:35:38;5.22;;;1.30;;
14294;SDS011;7231;59.370;18.016;2022-11-15T08:38:07;3.22;;;1.00;;
14294;SDS011;7231;59.370;18.016;2022-11-15T08:40:35;3.25;;;1.20;;
14294;SDS011;7231;59.370;18.016;2022-11-15T08:43:04;4.47;;;1.10;;
14294;SDS011;7231;59.370;18.016;2022-11-15T08:45:33;3.50;;;0.85;;
14294;SDS011;7231;59.370;18.016;2022-11-15T08:48:02;2.20;;;0.80;;
14294;SDS011;7231;59.370;18.016;2022-11-15T08:50:31;1.98;;;0.73;;
14294;SDS011;7231;59.370;18.016;2022-11-15T08:53:03;3.13;;;0.70;;
14294;SDS011;7231;59.370;18.016;2022-11-15T08:55:35;2.00;;;0.50;;
14294;SDS011;7231;59.370;18.016;2022-11-15T08:58:05;1.95;;;0.52;;
14294;SDS011;7231;59.370;18.016;2022-11-15T09:00:33;5.45;;;0.65;;
14294;SDS011;7231;59.370;18.016;2022-11-15T09:03:03;1.50;;;0.70;;
14294;SDS011;7231;59.370;18.016;2022-11-15T09:05:32;3.78;;;0.80;;
14294;SDS011;7231;59.370;18.016;2022-11-15T09:08:03;2.42;;;0.70;;
14294;SDS011;7231;59.370;18.016;2022-11-15T09:10:53;4.60;;;0.90;;
14294;SDS011;7231;59.370;18.016;2022-11-15T09:13:21;3.55;;;0.80;;
14294;SDS011;7231;59.370;18.016;2022-11-15T09:15:49;2.67;;;0.68;;
14294;SDS011;7231;59.370;18.016;2022-11-15T09:18:17;2.33;;;0.50;;
14294;SDS011;7231;59.370;18.016;2022-11-15T09:20:47;3.25;;;0.50;;
14294;SDS011;7231;59.370;18.016;2022-11-15T09:23:15;2.83;;;0.80;;
14294;SDS011;7231;59.370;18.016;2022-11-15T09:25:43;2.45;;;0.57;;
14294;SDS011;7231;59.370;18.016;2022-11-15T09:28:13;0.68;;;0.38;;
14294;SDS011;7231;59.370;18.016;2022-11-15T09:30:41;2.28;;;0.60;;
14294;SDS011;7231;59.370;18.016;2022-11-15T09:33:09;1.55;;;0.68;;
14294;SDS011;7231;59.370;18.016;2022-11-15T09:35:38;3.53;;;0.85;;
14294;SDS011;7231;59.370;18.016;2022-11-15T09:38:07;1.63;;;0.60;;
14294;SDS011;7231;59.370;18.016;2022-11-15T09:40:35;2.05;;;0.80;;
14294;SDS011;7231;59.370;18.016;2022-11-15T09:43:08;1.10;;;0.40;;
14294;SDS011;7231;59.370;18.016;2022-11-15T09:45:56;2.50;;;0.60;;
14294;SDS011;7231;59.370;18.016;2022-11-15T09:48:37;4.88;;;0.65;;
14294;SDS011;7231;59.370;18.016;2022-11-15T09:51:14;2.67;;;0.50;;
14294;SDS011;7231;59.370;18.016;2022-11-15T09:53:49;2.83;;;0.50;;
14294;SDS011;7231;59.370;18.016;2022-11-15T09:56:42;1.83;;;0.40;;
14294;SDS011;7231;59.370;18.016;2022-11-15T10:02:13;3.80;;;0.82;;
14294;SDS011;7231;59.370;18.016;2022-11-15T10:04:51;1.52;;;0.60;;
14294;SDS011;7231;59.370;18.016;2022-11-15T10:07:23;1.20;;;0.68;;
14294;SDS011;7231;59.370;18.016;2022-11-15T10:09:56;1.17;;;0.60;;
14294;SDS011;7231;59.370;18.016;2022-11-15T10:12:29;3.33;;;0.70;;
14294;SDS011;7231;59.370;18.016;2022-11-15T10:15:01;1.65;;;0.40;;
14294;SDS011;7231;59.370;18.016;2022-11-15T10:17:37;2.72;;;0.70;;
14294;SDS011;7231;59.370;18.016;2022-11-15T10:20:20;1.33;;;0.32;;
14294;SDS011;7231;59.370;18.016;2022-11-15T10:22:50;1.55;;;0.65;;
14294;SDS011;7231;59.370;18.016;2022-11-15T10:25:21;2.50;;;0.60;;
14294;SDS011;7231;59.370;18.016;2022-11-15T10:27:53;2.65;;;0.95;;
14294;SDS011;7231;59.370;18.016;2022-11-15T10:30:29;1.95;;;0.60;;
14294;SDS011;7231;59.370;18.016;2022-11-15T10:33:00;3.65;;;0.70;;
14294;SDS011;7231;59.370;18.016;2022-11-15T10:35:39;1.50;;;0.50;;
14294;SDS011;7231;59.370;18.016;2022-11-15T10:38:08;3.03;;;0.88;;
14294;SDS011;7231;59.370;18.016;2022-11-15T10:40:38;1.35;;;0.50;;
14294;SDS011;7231;59.370;18.016;2022-11-15T10:43:14;1.02;;;0.40;;
14294;SDS011;7231;59.370;18.016;2022-11-15T10:45:46;2.30;;;0.75;;
14294;SDS011;7231;59.370;18.016;2022-11-15T10:48:20;3.97;;;0.88;;
14294;SDS011;7231;59.370;18.016;2022-11-15T10:50:50;1.95;;;0.77;;
14294;SDS011;7231;59.370;18.016;2022-11-15T10:53:21;0.98;;;0.50;;
14294;SDS011;7231;59.370;18.016;2022-11-15T10:55:53;2.70;;;0.73;;
14294;SDS011;7231;59.370;18.016;2022-11-15T10:58:31;6.30;;;0.90;;
14294;SDS011;7231;59.370;18.016;2022-11-15T11:01:10;2.53;;;0.70;;
14294;SDS011;7231;59.370;18.016;2022-11-15T11:03:41;4.88;;;1.23;;
14294;SDS011;7231;59.370;18.016;2022-11-15T11:06:11;2.45;;;0.90;;
14294;SDS011;7231;59.370;18.016;2022-11-15T11:08:52;2.30;;;0.75;;
14294;SDS011;7231;59.370;18.016;2022-11-15T11:11:22;2.38;;;0.70;;
14294;SDS011;7231;59.370;18.016;2022-11-15T11:13:51;2.72;;;0.80;;
14294;SDS011;7231;59.370;18.016;2022-11-15T11:19:23;1.95;;;0.60;;
14294;SDS011;7231;59.370;18.016;2022-11-15T11:22:03;3.33;;;0.82;;
14294;SDS011;7231;59.370;18.016;2022-11-15T11:24:41;2.15;;;0.95;;
14294;SDS011;7231;59.370;18.016;2022-11-15T11:27:18;1.95;;;0.80;;
14294;SDS011;7231;59.370;18.016;2022-11-15T11:30:01;3.80;;;0.77;;
14294;SDS011;7231;59.370;18.016;2022-11-15T11:35:30;7.30;;;1.85;;
14294;SDS011;7231;59.370;18.016;2022-11-15T11:38:15;4.18;;;0.82;;
14294;SDS011;7231;59.370;18.016;2022-11-15T11:40:54;2.53;;;0.88;;
14294;SDS011;7231;59.370;18.016;2022-11-15T11:43:32;7.82;;;1.27;;
14294;SDS011;7231;59.370;18.016;2022-11-15T11:49:08;2.40;;;0.80;;
14294;SDS011;7231;59.370;18.016;2022-11-15T11:51:38;2.13;;;1.05;;
14294;SDS011;7231;59.370;18.016;2022-11-15T11:54:11;5.40;;;0.93;;
14294;SDS011;7231;59.370;18.016;2022-11-15T11:56:43;4.20;;;1.08;;
14294;SDS011;7231;59.370;18.016;2022-11-15T11:59:16;1.38;;;0.90;;
14294;SDS011;7231;59.370;18.016;2022-11-15T12:01:50;1.75;;;0.68;;
14294;SDS011;7231;59.370;18.016;2022-11-15T12:04:21;2.95;;;0.93;;
14294;SDS011;7231;59.370;18.016;2022-11-15T12:06:58;5.25;;;0.90;;
14294;SDS011;7231;59.370;18.016;2022-11-15T12:09:31;2.70;;;0.70;;
14294;SDS011;7231;59.370;18.016;2022-11-15T12:12:06;2.55;;;0.82;;
14294;SDS011;7231;59.370;18.016;2022-11-15T12:14:39;1.92;;;0.80;;
14294;SDS011;7231;59.370;18.016;2022-11-15T12:17:11;3.05;;;0.65;;
14294;SDS011;7231;59.370;18.016;2022-11-15T12:19:42;3.58;;;1.10;;
14294;SDS011;7231;59.370;18.016;2022-11-15T12:22:12;2.28;;;0.90;;
14294;SDS011;7231;59.370;18.016;2022-11-15T12:24:48;3.50;;;0.88;;
14294;SDS011;7231;59.370;18.016;2022-11-15T12:27:27;2.85;;;0.80;;
14294;SDS011;7231;59.370;18.016;2022-11-15T12:30:02;2.05;;;0.80;;
14294;SDS011;7231;59.370;18.016;2022-11-15T12:32:37;1.25;;;0.98;;
14294;SDS011;7231;59.370;18.016;2022-11-15T12:35:20;3.65;;;1.55;;
14294;SDS011;7231;59.370;18.016;2022-11-15T12:37:50;1.98;;;0.80;;
14294;SDS011;7231;59.370;18.016;2022-11-15T12:40:25;2.90;;;0.95;;
14294;SDS011;7231;59.370;18.016;2022-11-15T12:46:11;5.88;;;0.80;;
14294;SDS011;7231;59.370;18.016;2022-11-15T12:48:53;1.98;;;0.73;;
14294;SDS011;7231;59.370;18.016;2022-11-15T12:54:50;3.17;;;1.15;;
14294;SDS011;7231;59.370;18.016;2022-11-15T12:57:39;7.20;;;1.50;;
14294;SDS011;7231;59.370;18.016;2022-11-15T13:03:23;1.55;;;1.05;;
14294;SDS011;7231;59.370;18.016;2022-11-15T13:08:53;3.42;;;0.95;;
14294;SDS011;7231;59.370;18.016;2022-11-15T13:11:42;4.32;;;1.38;;
14294;SDS011;7231;59.370;18.016;2022-11-15T13:14:42;3.45;;;1.05;;
14294;SDS011;7231;59.370;18.016;2022-11-15T13:17:29;1.42;;;1.10;;
14294;SDS011;7231;59.370;18.016;2022-11-15T13:20:14;2.95;;;0.80;;
14294;SDS011;7231;59.370;18.016;2022-11-15T13:22:46;4.65;;;1.05;;
14294;SDS011;7231;59.370;18.016;2022-11-15T13:25:19;8.23;;;1.15;;
14294;SDS011;7231;59.370;18.016;2022-11-15T13:27:59;4.43;;;1.50;;
14294;SDS011;7231;59.370;18.016;2022-11-15T13:30:33;3.28;;;1.00;;
14294;SDS011;7231;59.370;18.016;2022-11-15T13:33:06;2.38;;;1.23;;
14294;SDS011;7231;59.370;18.016;2022-11-15T13:35:38;2.22;;;0.90;;
14294;SDS011;7231;59.370;18.016;2022-11-15T13:38:11;3.22;;;1.10;;
14294;SDS011;7231;59.370;18.016;2022-11-15T13:40:46;5.78;;;1.30;;
14294;SDS011;7231;59.370;18.016;2022-11-15T13:43:28;1.58;;;0.95;;
14294;SDS011;7231;59.370;18.016;2022-11-15T13:46:03;2.92;;;1.13;;
14294;SDS011;7231;59.370;18.016;2022-11-15T13:48:32;1.83;;;0.90;;
14294;SDS011;7231;59.370;18.016;2022-11-15T13:51:01;3.63;;;1.10;;
14294;SDS011;7231;59.370;18.016;2022-11-15T13:53:32;2.58;;;0.80;;
14294;SDS011;7231;59.370;18.016;2022-11-15T13:56:02;2.35;;;0.88;;
14294;SDS011;7231;59.370;18.016;2022-11-15T13:58:32;2.72;;;1.13;;
14294;SDS011;7231;59.370;18.016;2022-11-15T14:01:01;10.15;;;0.90;;
14294;SDS011;7231;59.370;18.016;2022-11-15T14:03:31;4.95;;;0.90;;
14294;SDS011;7231;59.370;18.016;2022-11-15T14:06:02;3.33;;;0.88;;
14294;SDS011;7231;59.370;18.016;2022-11-15T14:08:34;3.50;;;0.88;;
14294;SDS011;7231;59.370;18.016;2022-11-15T14:11:07;4.30;;;1.00;;
14294;SDS011;7231;59.370;18.016;2022-11-15T14:13:38;4.05;;;1.23;;
14294;SDS011;7231;59.370;18.016;2022-11-15T14:16:13;2.70;;;0.90;;
14294;SDS011;7231;59.370;18.016;2022-11-15T14:18:43;1.45;;;0.80;;
14294;SDS011;7231;59.370;18.016;2022-11-15T14:21:13;4.93;;;0.70;;
14294;SDS011;7231;59.370;18.016;2022-11-15T14:23:41;2.90;;;0.90;;
14294;SDS011;7231;59.370;18.016;2022-11-15T14:26:11;2.50;;;0.80;;
14294;SDS011;7231;59.370;18.016;2022-11-15T14:28:55;2.58;;;1.20;;
14294;SDS011;7231;59.370;18.016;2022-11-15T14:31:24;1.48;;;0.68;;
14294;SDS011;7231;59.370;18.016;2022-11-15T14:33:52;4.05;;;0.90;;
14294;SDS011;7231;59.370;18.016;2022-11-15T14:36:21;2.83;;;0.90;;
14294;SDS011;7231;59.370;18.016;2022-11-15T14:38:49;4.05;;;1.02;;
14294;SDS011;7231;59.370;18.016;2022-11-15T14:41:18;0.88;;;0.60;;
14294;SDS011;7231;59.370;18.016;2022-11-15T14:43:48;5.43;;;0.82;;
14294;SDS011;7231;59.370;18.016;2022-11-15T14:46:18;3.63;;;0.90;;
14294;SDS011;7231;59.370;18.016;2022-11-15T14:48:46;3.25;;;0.80;;
14294;SDS011;7231;59.370;18.016;2022-11-15T14:51:15;1.73;;;0.80;;
14294;SDS011;7231;59.370;18.016;2022-11-15T14:53:44;2.50;;;0.70;;
14294;SDS011;7231;59.370;18.016;2022-11-15T14:56:13;2.17;;;0.75;;
14294;SDS011;7231;59.370;18.016;2022-11-15T14:58:42;2.70;;;0.80;;
14294;SDS011;7231;59.370;18.016;2022-11-15T15:01:11;5.22;;;0.98;;
14294;SDS011;7231;59.370;18.016;2022-11-15T15:03:42;3.80;;;0.80;;
14294;SDS011;7231;59.370;18.016;2022-11-15T15:06:11;1.95;;;0.70;;
14294;SDS011;7231;59.370;18.016;2022-11-15T15:08:43;2.22;;;0.60;;
14294;SDS011;7231;59.370;18.016;2022-11-15T15:11:14;2.95;;;0.80;;
14294;SDS011;7231;59.370;18.016;2022-11-15T15:13:44;1.48;;;0.70;;
14294;SDS011;7231;59.370;18.016;2022-11-15T15:16:11;2.63;;;0.90;;
14294;SDS011;7231;59.370;18.016;2022-11-15T15:18:39;2.15;;;0.80;;
14294;SDS011;7231;59.370;18.016;2022-11-15T15:21:15;3.65;;;0.90;;
14294;SDS011;7231;59.370;18.016;2022-11-15T15:23:48;1.60;;;0.60;;
14294;SDS011;7231;59.370;18.016;2022-11-15T15:26:16;3.45;;;0.90;;
14294;SDS011;7231;59.370;18.016;2022-11-15T15:28:45;3.83;;;0.70;;
14294;SDS011;7231;59.370;18.016;2022-11-15T15:31:14;2.70;;;0.52;;
14294;SDS011;7231;59.370;18.016;2022-11-15T15:33:43;0.90;;;0.68;;
14294;SDS011;7231;59.370;18.016;2022-11-15T15:36:13;5.82;;;0.82;;
14294;SDS011;7231;59.370;18.016;2022-11-15T15:38:45;0.90;;;0.47;;
14294;SDS011;7231;59.370;18.016;2022-11-15T15:41:14;3.20;;;0.88;;